Time,TemperatureF,DewpointF,PressureIn,WindDirection,WindDirectionDegrees,WindSpeedMPH,WindSpeedGustMPH,Humidity,HourlyPrecipIn,Conditions,Clouds,dailyrainin,SoftwareType,DateUTC
2013-08-03 00:00:00,83.7,66.8,27.92,ENE,63,1.0,5.0,57,0.00,00:00,,0.00,WeatherDisplay:WD co,2013-08-02 21:00:00,
2013-08-03 00:05:00,83.5,66.6,27.92,ENE,64,2.0,5.0,57,0.00,00:05,,0.00,WeatherDisplay:WD co,2013-08-02 21:05:00,
2013-08-03 00:14:00,83.5,66.6,27.93,NNE,33,1.0,5.0,57,0.00,00:15,,0.00,WeatherDisplay:WD co,2013-08-02 21:14:00,
2013-08-03 00:20:00,83.3,66.5,27.92,ENE,70,0.0,6.0,57,0.00,00:20,,0.00,WeatherDisplay:WD co,2013-08-02 21:20:00,
2013-08-03 00:30:00,83.3,66.5,27.92,North,350,1.0,6.0,57,0.00,00:30,,0.00,WeatherDisplay:WD co,2013-08-02 21:30:00,
2013-08-03 00:35:00,83.5,67.1,27.93,NNE,23,2.0,6.0,58,0.00,00:35,,0.00,WeatherDisplay:WD co,2013-08-02 21:35:00,
2013-08-03 00:40:00,83.3,67.0,27.92,NE,48,0.0,8.0,58,0.00,00:40,,0.00,WeatherDisplay:WD co,2013-08-02 21:40:00,
2013-08-03 00:50:00,83.3,67.0,27.92,NE,46,1.0,4.0,58,0.00,00:50,,0.00,WeatherDisplay:WD co,2013-08-02 21:50:00,
2013-08-03 00:54:00,83.3,67.0,27.92,North,356,2.0,5.0,58,0.00,00:55,,0.00,WeatherDisplay:WD co,2013-08-02 21:54:00,
2013-08-03 01:00:00,83.3,67.0,27.92,ENE,71,1.0,6.0,58,0.00,01:00,,0.00,WeatherDisplay:WD co,2013-08-02 22:00:00,
2013-08-03 01:05:00,83.3,67.0,27.93,ENE,61,1.0,5.0,58,0.00,01:05,,0.00,WeatherDisplay:WD co,2013-08-02 22:05:00,
2013-08-03 01:14:00,83.1,66.8,27.92,ENE,57,1.0,4.0,58,0.00,01:15,,0.00,WeatherDisplay:WD co,2013-08-02 22:14:00,
2013-08-03 01:25:00,82.9,66.6,27.92,NNE,17,1.0,6.0,58,0.00,01:25,,0.00,WeatherDisplay:WD co,2013-08-02 22:25:00,
2013-08-03 01:35:00,82.9,66.6,27.92,NNE,17,0.0,8.0,58,0.00,01:30,,0.00,WeatherDisplay:WD co,2013-08-02 22:35:00,
2013-08-03 01:40:00,82.8,66.5,27.92,NE,43,1.0,4.0,58,0.00,01:40,,0.00,WeatherDisplay:WD co,2013-08-02 22:40:00,
2013-08-03 01:45:00,82.8,66.5,27.92,NE,45,3.0,6.0,58,0.00,01:45,,0.00,WeatherDisplay:WD co,2013-08-02 22:45:00,
2013-08-03 02:10:00,82.8,66.5,27.91,ENE,71,0.0,7.0,58,0.00,02:10,,0.00,WeatherDisplay:WD co,2013-08-02 23:10:00,
2013-08-03 02:15:00,82.8,66.5,27.91,ENE,71,0.0,7.0,58,0.00,02:10,,0.00,WeatherDisplay:WD co,2013-08-02 23:15:00,
2013-08-03 02:20:00,82.4,66.6,27.91,ENE,61,0.0,7.0,59,0.00,02:20,,0.00,WeatherDisplay:WD co,2013-08-02 23:20:00,
2013-08-03 02:30:00,82.4,66.6,27.91,NE,37,0.0,7.0,59,0.00,02:25,,0.00,WeatherDisplay:WD co,2013-08-02 23:30:00,
2013-08-03 02:40:00,82.2,66.5,27.91,NE,44,3.0,7.0,59,0.00,02:40,,0.00,WeatherDisplay:WD co,2013-08-02 23:40:00,
2013-08-03 02:45:00,82.4,66.6,27.91,NE,47,2.0,5.0,59,0.00,02:45,,0.00,WeatherDisplay:WD co,2013-08-02 23:45:00,
2013-08-03 02:50:00,82.2,66.5,27.91,ENE,60,0.0,4.0,59,0.00,02:50,,0.00,WeatherDisplay:WD co,2013-08-02 23:50:00,
2013-08-03 02:55:00,82.2,66.5,27.91,East,83,2.0,8.0,59,0.00,02:55,,0.00,WeatherDisplay:WD co,2013-08-02 23:55:00,
2013-08-03 03:00:00,82.2,66.5,27.91,ENE,71,1.0,9.0,59,0.00,03:00,,0.00,WeatherDisplay:WD co,2013-08-03 00:00:00,
2013-08-03 03:05:00,82.2,66.5,27.91,East,89,3.0,8.0,59,0.00,03:05,,0.00,WeatherDisplay:WD co,2013-08-03 00:05:00,
2013-08-03 03:10:00,82.2,66.5,27.91,ENE,75,0.0,7.0,59,0.00,03:10,,0.00,WeatherDisplay:WD co,2013-08-03 00:10:00,
2013-08-03 03:20:00,82.0,66.3,27.91,NNE,33,1.0,5.0,59,0.00,03:20,,0.00,WeatherDisplay:WD co,2013-08-03 00:20:00,
2013-08-03 03:25:00,82.0,66.3,27.91,NNE,26,0.0,5.0,59,0.00,03:25,,0.00,WeatherDisplay:WD co,2013-08-03 00:25:00,
2013-08-03 03:29:00,81.9,66.1,27.91,NNE,28,0.0,2.0,59,0.00,03:30,,0.00,WeatherDisplay:WD co,2013-08-03 00:29:00,
2013-08-03 03:34:00,81.9,66.1,27.91,NNE,28,0.0,2.0,59,0.00,03:30,,0.00,WeatherDisplay:WD co,2013-08-03 00:34:00,
2013-08-03 03:50:00,81.7,66.4,27.91,NE,50,0.0,4.0,60,0.00,03:50,,0.00,WeatherDisplay:WD co,2013-08-03 00:50:00,
2013-08-03 03:55:00,81.7,66.4,27.91,NE,35,1.0,5.0,60,0.00,03:55,,0.00,WeatherDisplay:WD co,2013-08-03 00:55:00,
2013-08-03 04:00:00,81.7,66.4,27.91,NE,37,1.0,6.0,60,0.00,04:00,,0.00,WeatherDisplay:WD co,2013-08-03 01:00:00,
2013-08-03 04:10:00,81.7,66.4,27.91,ENE,61,2.0,6.0,60,0.00,04:10,,0.00,WeatherDisplay:WD co,2013-08-03 01:10:00,
2013-08-03 04:15:00,81.7,66.4,27.91,NE,40,0.0,2.0,60,0.00,04:15,,0.00,WeatherDisplay:WD co,2013-08-03 01:15:00,
2013-08-03 04:20:00,81.7,66.9,27.91,NE,37,2.0,4.0,61,0.00,04:20,,0.00,WeatherDisplay:WD co,2013-08-03 01:20:00,
2013-08-03 04:24:00,81.5,66.8,27.91,NE,42,0.0,4.0,61,0.00,04:25,,0.00,WeatherDisplay:WD co,2013-08-03 01:24:00,
2013-08-03 04:30:00,81.5,66.8,27.90,NE,53,1.0,5.0,61,0.00,04:30,,0.00,WeatherDisplay:WD co,2013-08-03 01:30:00,
2013-08-03 04:40:00,81.5,66.8,27.90,NE,48,0.0,4.0,61,0.00,04:40,,0.00,WeatherDisplay:WD co,2013-08-03 01:40:00,
2013-08-03 04:50:00,81.3,66.6,27.90,NE,40,0.0,6.0,61,0.00,04:50,,0.00,WeatherDisplay:WD co,2013-08-03 01:50:00,
2013-08-03 04:55:00,81.3,66.6,27.90,NE,40,0.0,6.0,61,0.00,04:50,,0.00,WeatherDisplay:WD co,2013-08-03 01:55:00,
2013-08-03 05:10:00,81.3,67.1,27.91,ENE,63,1.0,7.0,62,0.00,05:10,,0.00,WeatherDisplay:WD co,2013-08-03 02:10:00,
2013-08-03 05:30:00,81.3,67.1,27.91,NE,53,1.0,9.0,62,0.00,05:30,,0.00,WeatherDisplay:WD co,2013-08-03 02:30:00,
2013-08-03 05:35:00,81.3,67.5,27.91,NNE,23,3.0,8.0,63,0.00,05:35,,0.00,WeatherDisplay:WD co,2013-08-03 02:35:00,
2013-08-03 05:40:00,81.3,67.5,27.91,NE,39,0.0,7.0,63,0.00,05:40,,0.00,WeatherDisplay:WD co,2013-08-03 02:40:00,
2013-08-03 05:44:00,81.1,67.3,27.91,NE,53,2.0,6.0,63,0.00,05:45,,0.00,WeatherDisplay:WD co,2013-08-03 02:44:00,
2013-08-03 05:55:00,81.0,67.2,27.91,North,2,1.0,7.0,63,0.00,05:55,,0.00,WeatherDisplay:WD co,2013-08-03 02:55:00,
2013-08-03 05:59:00,81.0,67.6,27.91,NNE,26,0.0,8.0,64,0.00,06:00,,0.00,WeatherDisplay:WD co,2013-08-03 02:59:00,
2013-08-03 06:05:00,81.0,67.6,27.91,NNE,28,1.0,5.0,64,0.00,06:05,,0.00,WeatherDisplay:WD co,2013-08-03 03:05:00,
2013-08-03 06:09:00,80.8,67.5,27.91,NNE,25,1.0,6.0,64,0.00,06:10,,0.00,WeatherDisplay:WD co,2013-08-03 03:09:00,
2013-08-03 06:15:00,80.8,67.5,27.91,ENE,68,1.0,8.0,64,0.00,06:15,,0.00,WeatherDisplay:WD co,2013-08-03 03:15:00,
2013-08-03 06:20:00,80.8,67.9,27.91,ENE,57,0.0,6.0,65,0.00,06:20,,0.00,WeatherDisplay:WD co,2013-08-03 03:20:00,
2013-08-03 06:24:00,81.0,68.1,27.92,NE,41,2.0,8.0,65,0.00,06:25,,0.00,WeatherDisplay:WD co,2013-08-03 03:24:00,
2013-08-03 06:29:00,81.0,68.1,27.91,NE,51,1.0,7.0,65,0.00,06:30,,0.00,WeatherDisplay:WD co,2013-08-03 03:29:00,
2013-08-03 06:40:00,81.0,68.5,27.92,NE,49,1.0,9.0,66,0.00,06:40,,0.00,WeatherDisplay:WD co,2013-08-03 03:40:00,
2013-08-03 06:44:00,81.0,68.5,27.92,ENE,59,0.0,6.0,66,0.00,06:45,,0.00,WeatherDisplay:WD co,2013-08-03 03:44:00,
2013-08-03 06:50:00,80.8,68.4,27.92,NE,49,2.0,8.0,66,0.00,06:50,,0.00,WeatherDisplay:WD co,2013-08-03 03:50:00,
2013-08-03 06:55:00,80.8,68.4,27.91,NE,43,1.0,8.0,66,0.00,06:55,,0.00,WeatherDisplay:WD co,2013-08-03 03:55:00,
2013-08-03 07:00:00,81.0,68.5,27.92,NE,53,2.0,7.0,66,0.00,07:00,,0.00,WeatherDisplay:WD co,2013-08-03 04:00:00,
2013-08-03 07:05:00,81.0,68.5,27.92,NE,53,2.0,7.0,66,0.00,07:00,,0.00,WeatherDisplay:WD co,2013-08-03 04:05:00,
2013-08-03 07:09:00,81.1,68.7,27.92,ENE,63,0.0,6.0,66,0.00,07:10,,0.00,WeatherDisplay:WD co,2013-08-03 04:09:00,
2013-08-03 07:15:00,81.1,68.7,27.92,ENE,63,0.0,6.0,66,0.00,07:10,,0.00,WeatherDisplay:WD co,2013-08-03 04:15:00,
2013-08-03 07:20:00,82.8,69.8,27.92,ENE,71,2.0,6.0,65,0.00,07:20,,0.00,WeatherDisplay:WD co,2013-08-03 04:20:00,
2013-08-03 07:25:00,83.3,69.8,27.92,NE,53,0.0,4.0,64,0.00,07:25,,0.00,WeatherDisplay:WD co,2013-08-03 04:25:00,
2013-08-03 07:30:00,84.0,70.1,27.92,NE,51,1.0,8.0,63,0.00,07:30,,0.00,WeatherDisplay:WD co,2013-08-03 04:30:00,
2013-08-03 07:35:00,85.1,71.1,27.92,NNE,33,0.0,2.0,63,0.00,07:35,,0.00,WeatherDisplay:WD co,2013-08-03 04:35:00,
2013-08-03 07:39:00,85.6,71.1,27.92,NE,41,1.0,5.0,62,0.00,07:40,,0.00,WeatherDisplay:WD co,2013-08-03 04:39:00,
2013-08-03 07:44:00,85.6,71.1,27.92,NE,44,0.0,6.0,62,0.00,07:45,,0.00,WeatherDisplay:WD co,2013-08-03 04:44:00,
2013-08-03 08:04:00,87.1,72.0,27.93,ENE,60,0.0,7.0,61,0.00,08:05,,0.00,WeatherDisplay:WD co,2013-08-03 05:04:00,
2013-08-03 08:10:00,87.6,72.0,27.93,ENE,61,6.0,8.0,60,0.00,08:10,,0.00,WeatherDisplay:WD co,2013-08-03 05:10:00,
2013-08-03 08:15:00,88.0,72.4,27.93,ENE,65,0.0,4.0,60,0.00,08:15,,0.00,WeatherDisplay:WD co,2013-08-03 05:15:00,
2013-08-03 08:20:00,88.0,72.4,27.92,NNW,348,2.0,8.0,60,0.00,08:20,,0.00,WeatherDisplay:WD co,2013-08-03 05:20:00,
2013-08-03 08:25:00,88.2,72.5,27.93,NNE,18,3.0,8.0,60,0.00,08:25,,0.00,WeatherDisplay:WD co,2013-08-03 05:25:00,
2013-08-03 08:30:00,88.2,72.5,27.93,NNE,18,3.0,8.0,60,0.00,08:25,,0.00,WeatherDisplay:WD co,2013-08-03 05:30:00,
2013-08-03 08:34:00,87.3,72.2,27.93,ENE,58,0.0,4.0,61,0.00,08:35,,0.00,WeatherDisplay:WD co,2013-08-03 05:34:00,
2013-08-03 08:40:00,87.8,72.2,27.92,NE,50,3.0,8.0,60,0.00,08:40,,0.00,WeatherDisplay:WD co,2013-08-03 05:40:00,
2013-08-03 08:45:00,87.6,72.0,27.92,NE,42,2.0,10.0,60,0.00,08:45,,0.00,WeatherDisplay:WD co,2013-08-03 05:45:00,
2013-08-03 09:00:00,87.8,71.7,27.92,ENE,62,3.0,11.0,59,0.00,09:00,,0.00,WeatherDisplay:WD co,2013-08-03 06:00:00,
2013-08-03 09:04:00,89.1,69.7,27.92,ENE,61,6.0,15.0,53,0.00,09:05,,0.00,WeatherDisplay:WD co,2013-08-03 06:04:00,
2013-08-03 09:10:00,89.1,69.7,27.92,NE,50,3.0,17.0,53,0.00,09:10,,0.00,WeatherDisplay:WD co,2013-08-03 06:10:00,
2013-08-03 09:15:00,90.1,70.1,27.92,NE,42,6.0,8.0,52,0.00,09:15,,0.00,WeatherDisplay:WD co,2013-08-03 06:15:00,
2013-08-03 09:25:00,89.8,70.4,27.92,NE,41,1.0,14.0,53,0.00,09:25,,0.00,WeatherDisplay:WD co,2013-08-03 06:25:00,
2013-08-03 09:29:00,90.3,70.9,27.92,NNE,23,1.0,13.0,53,0.00,09:30,,0.00,WeatherDisplay:WD co,2013-08-03 06:29:00,
2013-08-03 09:34:00,90.3,70.9,27.92,NNE,23,1.0,13.0,53,0.00,09:30,,0.00,WeatherDisplay:WD co,2013-08-03 06:34:00,
2013-08-03 09:40:00,90.7,70.6,27.92,NE,50,3.0,10.0,52,0.00,09:40,,0.00,WeatherDisplay:WD co,2013-08-03 06:40:00,
2013-08-03 09:45:00,90.0,70.5,27.92,NE,44,1.0,17.0,53,0.00,09:45,,0.00,WeatherDisplay:WD co,2013-08-03 06:45:00,
2013-08-03 09:55:00,90.0,70.5,27.92,NNE,12,8.0,15.0,53,0.00,09:55,,0.00,WeatherDisplay:WD co,2013-08-03 06:55:00,
2013-08-03 10:00:00,90.0,70.5,27.92,NNE,17,5.0,15.0,53,0.00,10:00,,0.00,WeatherDisplay:WD co,2013-08-03 07:00:00,
2013-08-03 10:10:00,90.1,70.7,27.92,ENE,73,6.0,14.0,53,0.00,10:10,,0.00,WeatherDisplay:WD co,2013-08-03 07:10:00,
2013-08-03 10:15:00,90.3,70.9,27.92,ESE,112,3.0,14.0,53,0.00,10:15,,0.00,WeatherDisplay:WD co,2013-08-03 07:15:00,
2013-08-03 10:35:00,90.7,71.2,27.92,NE,36,7.0,15.0,53,0.00,10:30,,0.00,WeatherDisplay:WD co,2013-08-03 07:35:00,
2013-08-03 10:40:00,91.0,71.5,27.92,NE,35,6.0,13.0,53,0.00,10:35,,0.00,WeatherDisplay:WD co,2013-08-03 07:40:00,
2013-08-03 10:55:00,91.4,71.3,27.92,NNE,31,6.0,12.0,52,0.00,10:55,,0.00,WeatherDisplay:WD co,2013-08-03 07:55:00,
2013-08-03 11:00:00,91.6,71.5,27.92,NE,40,6.0,13.0,52,0.00,11:00,,0.00,WeatherDisplay:WD co,2013-08-03 08:00:00,
2013-08-03 11:04:00,91.6,71.5,27.92,NE,40,6.0,13.0,52,0.00,11:00,,0.00,WeatherDisplay:WD co,2013-08-03 08:04:00,
2013-08-03 11:10:00,91.4,71.9,27.92,NE,42,7.0,17.0,53,0.00,11:10,,0.00,WeatherDisplay:WD co,2013-08-03 08:10:00,
2013-08-03 11:20:00,92.1,71.4,27.92,NE,37,6.0,19.0,51,0.00,11:20,,0.00,WeatherDisplay:WD co,2013-08-03 08:20:00,
2013-08-03 11:30:00,93.0,71.6,27.92,NE,53,3.0,10.0,50,0.00,11:30,,0.00,WeatherDisplay:WD co,2013-08-03 08:30:00,
2013-08-03 11:35:00,93.0,71.6,27.92,East,80,5.0,18.0,50,0.00,11:35,,0.00,WeatherDisplay:WD co,2013-08-03 08:35:00,
2013-08-03 11:40:00,92.3,71.0,27.92,NE,37,8.0,19.0,50,0.00,11:40,,0.00,WeatherDisplay:WD co,2013-08-03 08:40:00,
2013-08-03 11:44:00,92.3,71.0,27.92,NE,37,8.0,19.0,50,0.00,11:40,,0.00,WeatherDisplay:WD co,2013-08-03 08:44:00,
2013-08-03 11:49:00,93.6,71.5,27.92,NE,37,6.0,12.0,49,0.00,11:50,,0.00,WeatherDisplay:WD co,2013-08-03 08:49:00,
2013-08-03 11:55:00,93.4,71.4,27.92,North,349,6.0,15.0,49,0.00,11:55,,0.00,WeatherDisplay:WD co,2013-08-03 08:55:00,
2013-08-03 12:10:00,93.4,72.0,27.92,ENE,77,5.0,14.0,50,0.00,12:10,,0.00,WeatherDisplay:WD co,2013-08-03 09:10:00,
2013-08-03 12:15:00,93.4,72.0,27.92,ENE,64,2.0,15.0,50,0.00,12:15,,0.00,WeatherDisplay:WD co,2013-08-03 09:15:00,
2013-08-03 12:25:00,94.3,72.2,27.92,North,356,3.0,15.0,49,0.00,12:25,,0.00,WeatherDisplay:WD co,2013-08-03 09:25:00,
2013-08-03 12:30:00,94.5,72.3,27.92,NNE,19,3.0,12.0,49,0.00,12:30,,0.00,WeatherDisplay:WD co,2013-08-03 09:30:00,
2013-08-03 12:35:00,94.3,72.2,27.92,North,358,3.0,9.0,49,0.00,12:35,,0.00,WeatherDisplay:WD co,2013-08-03 09:35:00,
2013-08-03 12:39:00,94.5,72.3,27.92,North,11,3.0,14.0,49,0.00,12:40,,0.00,WeatherDisplay:WD co,2013-08-03 09:39:00,
2013-08-03 12:50:00,94.5,72.3,27.92,East,96,2.0,14.0,49,0.00,12:50,,0.00,WeatherDisplay:WD co,2013-08-03 09:50:00,
2013-08-03 12:55:00,94.6,72.5,27.92,ESE,105,3.0,16.0,49,0.00,12:55,,0.00,WeatherDisplay:WD co,2013-08-03 09:55:00,
2013-08-03 13:00:00,94.6,72.5,27.92,ESE,105,3.0,16.0,49,0.00,12:55,,0.00,WeatherDisplay:WD co,2013-08-03 10:00:00,
2013-08-03 13:05:00,94.6,72.5,27.91,NNE,15,3.0,13.0,49,0.00,13:05,,0.00,WeatherDisplay:WD co,2013-08-03 10:05:00,
2013-08-03 13:10:00,94.8,72.1,27.91,NNE,27,8.0,11.0,48,0.00,13:10,,0.00,WeatherDisplay:WD co,2013-08-03 10:10:00,
2013-08-03 13:15:00,94.6,72.5,27.91,NE,56,5.0,12.0,49,0.00,13:15,,0.00,WeatherDisplay:WD co,2013-08-03 10:15:00,
2013-08-03 13:20:00,94.8,72.7,27.91,East,79,3.0,14.0,49,0.00,13:20,,0.00,WeatherDisplay:WD co,2013-08-03 10:20:00,
2013-08-03 13:30:00,94.6,72.5,27.91,NE,45,5.0,12.0,49,0.00,13:30,,0.00,WeatherDisplay:WD co,2013-08-03 10:30:00,
2013-08-03 13:40:00,95.0,72.2,27.91,NE,38,8.0,13.0,48,0.00,13:40,,0.00,WeatherDisplay:WD co,2013-08-03 10:40:00,
2013-08-03 13:45:00,95.0,72.8,27.91,NE,44,5.0,16.0,49,0.00,13:45,,0.00,WeatherDisplay:WD co,2013-08-03 10:45:00,
2013-08-03 13:50:00,95.0,72.2,27.91,NE,49,8.0,13.0,48,0.00,13:50,,0.00,WeatherDisplay:WD co,2013-08-03 10:50:00,
2013-08-03 13:55:00,94.8,72.7,27.91,NE,43,2.0,9.0,49,0.00,13:55,,0.00,WeatherDisplay:WD co,2013-08-03 10:55:00,
2013-08-03 14:00:00,94.8,72.7,27.90,ESE,116,1.0,15.0,49,0.00,14:00,,0.00,WeatherDisplay:WD co,2013-08-03 11:00:00,
2013-08-03 14:05:00,95.2,73.0,27.90,SE,139,7.0,13.0,49,0.00,14:05,,0.00,WeatherDisplay:WD co,2013-08-03 11:05:00,
2013-08-03 14:10:00,95.0,72.8,27.89,ENE,64,2.0,10.0,49,0.00,14:10,,0.00,WeatherDisplay:WD co,2013-08-03 11:10:00,
2013-08-03 14:15:00,95.2,73.0,27.90,NNE,32,3.0,14.0,49,0.00,14:15,,0.00,WeatherDisplay:WD co,2013-08-03 11:15:00,
2013-08-03 14:20:00,95.5,73.3,27.89,NNW,346,1.0,15.0,49,0.00,14:20,,0.00,WeatherDisplay:WD co,2013-08-03 11:20:00,
2013-08-03 14:25:00,95.5,72.7,27.89,NE,45,8.0,16.0,48,0.00,14:25,,0.00,WeatherDisplay:WD co,2013-08-03 11:25:00,
2013-08-03 14:30:00,95.0,72.2,27.89,ENE,77,3.0,13.0,48,0.00,14:30,,0.00,WeatherDisplay:WD co,2013-08-03 11:30:00,
2013-08-03 14:34:00,95.0,72.2,27.89,ENE,71,6.0,11.0,48,0.00,14:35,,0.00,WeatherDisplay:WD co,2013-08-03 11:34:00,
2013-08-03 14:40:00,95.0,72.2,27.89,ENE,71,6.0,11.0,48,0.00,14:35,,0.00,WeatherDisplay:WD co,2013-08-03 11:40:00,
2013-08-03 14:50:00,95.2,72.4,27.89,NE,51,6.0,15.0,48,0.00,14:45,,0.00,WeatherDisplay:WD co,2013-08-03 11:50:00,
2013-08-03 15:05:00,95.0,71.6,27.89,NE,47,6.0,13.0,47,0.00,15:05,,0.00,WeatherDisplay:WD co,2013-08-03 12:05:00,
2013-08-03 15:10:00,95.2,71.1,27.89,NE,41,6.0,11.0,46,0.00,15:10,,0.00,WeatherDisplay:WD co,2013-08-03 12:10:00,
2013-08-03 15:19:00,94.6,70.6,27.89,NE,56,0.0,16.0,46,0.00,15:20,,0.00,WeatherDisplay:WD co,2013-08-03 12:19:00,
2013-08-03 15:29:00,95.7,71.0,27.89,NE,53,0.0,8.0,45,0.00,15:30,,0.00,WeatherDisplay:WD co,2013-08-03 12:29:00,
2013-08-03 15:35:00,95.9,70.5,27.89,ENE,65,3.0,10.0,44,0.00,15:35,,0.00,WeatherDisplay:WD co,2013-08-03 12:35:00,
2013-08-03 15:40:00,96.1,70.6,27.88,NNE,32,5.0,12.0,44,0.00,15:40,,0.00,WeatherDisplay:WD co,2013-08-03 12:40:00,
2013-08-03 15:44:00,96.1,70.6,27.88,NNE,32,5.0,12.0,44,0.00,15:40,,0.00,WeatherDisplay:WD co,2013-08-03 12:44:00,
2013-08-03 15:50:00,95.9,70.5,27.89,East,86,6.0,15.0,44,0.00,15:50,,0.00,WeatherDisplay:WD co,2013-08-03 12:50:00,
2013-08-03 15:55:00,95.2,70.5,27.89,NNE,30,3.0,11.0,45,0.00,15:55,,0.00,WeatherDisplay:WD co,2013-08-03 12:55:00,
2013-08-03 16:00:00,95.5,71.5,27.89,NNE,32,0.0,8.0,46,0.00,16:00,,0.00,WeatherDisplay:WD co,2013-08-03 13:00:00,
2013-08-03 16:05:00,96.3,70.8,27.89,NE,43,8.0,15.0,44,0.00,16:05,,0.00,WeatherDisplay:WD co,2013-08-03 13:05:00,
2013-08-03 16:10:00,95.9,70.5,27.89,ENE,67,6.0,17.0,44,0.00,16:10,,0.00,WeatherDisplay:WD co,2013-08-03 13:10:00,
2013-08-03 16:15:00,95.4,70.0,27.88,ENE,75,5.0,16.0,44,0.00,16:15,,0.00,WeatherDisplay:WD co,2013-08-03 13:15:00,
2013-08-03 16:20:00,95.5,70.8,27.88,ENE,65,3.0,8.0,45,0.00,16:20,,0.00,WeatherDisplay:WD co,2013-08-03 13:20:00,
2013-08-03 16:24:00,95.7,70.3,27.88,ENE,57,6.0,13.0,44,0.00,16:25,,0.00,WeatherDisplay:WD co,2013-08-03 13:24:00,
2013-08-03 16:30:00,95.2,71.1,27.88,NE,45,5.0,15.0,46,0.00,16:30,,0.00,WeatherDisplay:WD co,2013-08-03 13:30:00,
2013-08-03 16:40:00,95.2,69.8,27.88,ENE,73,5.0,13.0,44,0.00,16:40,,0.00,WeatherDisplay:WD co,2013-08-03 13:40:00,
2013-08-03 16:55:00,94.8,70.2,27.89,NE,39,6.0,11.0,45,0.00,16:50,,0.00,WeatherDisplay:WD co,2013-08-03 13:55:00,
2013-08-03 17:05:00,94.5,69.2,27.88,NNE,27,3.0,8.0,44,0.00,17:05,,0.00,WeatherDisplay:WD co,2013-08-03 14:05:00,
2013-08-03 17:10:00,94.3,69.0,27.88,NE,44,8.0,15.0,44,0.00,17:10,,0.00,WeatherDisplay:WD co,2013-08-03 14:10:00,
2013-08-03 17:14:00,94.5,69.2,27.88,NE,45,3.0,13.0,44,0.00,17:15,,0.00,WeatherDisplay:WD co,2013-08-03 14:14:00,
2013-08-03 17:20:00,94.6,69.3,27.88,NE,52,1.0,12.0,44,0.00,17:20,,0.00,WeatherDisplay:WD co,2013-08-03 14:20:00,
2013-08-03 17:24:00,94.6,69.3,27.88,NE,52,1.0,12.0,44,0.00,17:20,,0.00,WeatherDisplay:WD co,2013-08-03 14:24:00,
2013-08-03 17:30:00,94.6,68.7,27.88,ENE,60,1.0,13.0,43,0.00,17:30,,0.00,WeatherDisplay:WD co,2013-08-03 14:30:00,
2013-08-03 17:35:00,94.8,68.8,27.87,NE,56,0.0,7.0,43,0.00,17:35,,0.00,WeatherDisplay:WD co,2013-08-03 14:35:00,
2013-08-03 17:40:00,94.8,69.5,27.88,NE,47,1.0,11.0,44,0.00,17:40,,0.00,WeatherDisplay:WD co,2013-08-03 14:40:00,
2013-08-03 17:45:00,94.8,68.8,27.88,NNE,26,5.0,13.0,43,0.00,17:45,,0.00,WeatherDisplay:WD co,2013-08-03 14:45:00,
2013-08-03 17:50:00,94.6,68.7,27.88,North,9,1.0,13.0,43,0.00,17:50,,0.00,WeatherDisplay:WD co,2013-08-03 14:50:00,
2013-08-03 17:54:00,94.5,68.5,27.88,NNE,23,1.0,13.0,43,0.00,17:55,,0.00,WeatherDisplay:WD co,2013-08-03 14:54:00,
2013-08-03 17:59:00,94.8,68.1,27.88,ENE,57,3.0,11.0,42,0.00,18:00,,0.00,WeatherDisplay:WD co,2013-08-03 14:59:00,
2013-08-03 18:05:00,95.2,68.5,27.88,NE,50,3.0,10.0,42,0.00,18:05,,0.00,WeatherDisplay:WD co,2013-08-03 15:05:00,
2013-08-03 18:10:00,95.2,69.2,27.88,North,6,2.0,9.0,43,0.00,18:10,,0.00,WeatherDisplay:WD co,2013-08-03 15:10:00,
2013-08-03 18:19:00,95.0,69.0,27.87,ENE,60,3.0,14.0,43,0.00,18:20,,0.00,WeatherDisplay:WD co,2013-08-03 15:19:00,
2013-08-03 18:25:00,94.5,68.5,27.88,NE,49,3.0,10.0,43,0.00,18:25,,0.00,WeatherDisplay:WD co,2013-08-03 15:25:00,
2013-08-03 18:34:00,94.1,68.2,27.87,NE,46,5.0,11.0,43,0.00,18:35,,0.00,WeatherDisplay:WD co,2013-08-03 15:34:00,
2013-08-03 18:39:00,93.7,67.9,27.88,NE,43,6.0,13.0,43,0.00,18:40,,0.00,WeatherDisplay:WD co,2013-08-03 15:39:00,
2013-08-03 18:45:00,93.6,68.4,27.87,NE,36,5.0,13.0,44,0.00,18:45,,0.00,WeatherDisplay:WD co,2013-08-03 15:45:00,
2013-08-03 18:50:00,93.6,67.7,27.87,NE,45,6.0,11.0,43,0.00,18:50,,0.00,WeatherDisplay:WD co,2013-08-03 15:50:00,
2013-08-03 18:54:00,92.7,66.9,27.87,NE,51,1.0,8.0,43,0.00,18:55,,0.00,WeatherDisplay:WD co,2013-08-03 15:54:00,
2013-08-03 19:00:00,92.1,67.1,27.87,ENE,68,7.0,13.0,44,0.00,19:00,,0.00,WeatherDisplay:WD co,2013-08-03 16:00:00,
2013-08-03 19:05:00,91.4,66.4,27.88,NE,49,8.0,15.0,44,0.00,19:05,,0.00,WeatherDisplay:WD co,2013-08-03 16:05:00,
2013-08-03 19:10:00,91.0,66.1,27.87,NNE,33,2.0,10.0,44,0.00,19:10,,0.00,WeatherDisplay:WD co,2013-08-03 16:10:00,
2013-08-03 19:15:00,91.0,66.1,27.87,NNE,24,0.0,8.0,44,0.00,19:15,,0.00,WeatherDisplay:WD co,2013-08-03 16:15:00,
2013-08-03 19:19:00,90.9,65.9,27.87,NNE,33,2.0,10.0,44,0.00,19:20,,0.00,WeatherDisplay:WD co,2013-08-03 16:19:00,
2013-08-03 19:24:00,90.7,65.8,27.87,NE,41,3.0,13.0,44,0.00,19:25,,0.00,WeatherDisplay:WD co,2013-08-03 16:24:00,
2013-08-03 19:30:00,90.5,65.6,27.87,ENE,66,2.0,9.0,44,0.00,19:30,,0.00,WeatherDisplay:WD co,2013-08-03 16:30:00,
2013-08-03 19:35:00,90.3,66.1,27.87,ENE,58,1.0,11.0,45,0.00,19:35,,0.00,WeatherDisplay:WD co,2013-08-03 16:35:00,
2013-08-03 19:40:00,90.3,66.1,27.88,ENE,64,3.0,11.0,45,0.00,19:40,,0.00,WeatherDisplay:WD co,2013-08-03 16:40:00,
2013-08-03 19:50:00,89.8,65.6,27.87,NNE,32,1.0,8.0,45,0.00,19:50,,0.00,WeatherDisplay:WD co,2013-08-03 16:50:00,
2013-08-03 19:55:00,89.6,65.4,27.87,NE,40,5.0,11.0,45,0.00,19:55,,0.00,WeatherDisplay:WD co,2013-08-03 16:55:00,
2013-08-03 20:00:00,89.6,65.4,27.88,NNE,25,3.0,8.0,45,0.00,20:00,,0.00,WeatherDisplay:WD co,2013-08-03 17:00:00,
2013-08-03 20:04:00,89.4,64.6,27.87,ENE,74,3.0,11.0,44,0.00,20:05,,0.00,WeatherDisplay:WD co,2013-08-03 17:04:00,
2013-08-03 20:10:00,89.2,65.8,27.88,ENE,59,1.0,11.0,46,0.00,20:10,,0.00,WeatherDisplay:WD co,2013-08-03 17:10:00,
2013-08-03 20:15:00,89.1,65.6,27.88,NE,41,1.0,7.0,46,0.00,20:15,,0.00,WeatherDisplay:WD co,2013-08-03 17:15:00,
2013-08-03 20:19:00,89.1,65.6,27.88,ENE,68,3.0,9.0,46,0.00,20:20,,0.00,WeatherDisplay:WD co,2013-08-03 17:19:00,
2013-08-03 20:29:00,88.7,65.3,27.88,NNE,30,0.0,8.0,46,0.00,20:30,,0.00,WeatherDisplay:WD co,2013-08-03 17:29:00,
2013-08-03 20:35:00,88.5,65.1,27.88,NE,56,0.0,7.0,46,0.00,20:35,,0.00,WeatherDisplay:WD co,2013-08-03 17:35:00,
2013-08-03 20:40:00,88.2,64.8,27.88,ENE,70,0.0,6.0,46,0.00,20:40,,0.00,WeatherDisplay:WD co,2013-08-03 17:40:00,
2013-08-03 20:45:00,88.2,64.8,27.88,NNE,30,0.0,5.0,46,0.00,20:45,,0.00,WeatherDisplay:WD co,2013-08-03 17:45:00,
2013-08-03 20:49:00,88.2,64.1,27.89,NE,40,3.0,7.0,45,0.00,20:50,,0.00,WeatherDisplay:WD co,2013-08-03 17:49:00,
2013-08-03 20:55:00,88.0,64.0,27.89,NNE,28,3.0,11.0,45,0.00,20:55,,0.00,WeatherDisplay:WD co,2013-08-03 17:55:00,
2013-08-03 21:00:00,88.0,64.0,27.89,ENE,64,0.0,8.0,45,0.00,21:00,,0.00,WeatherDisplay:WD co,2013-08-03 18:00:00,
2013-08-03 21:04:00,87.8,64.4,27.89,East,97,0.0,4.0,46,0.00,21:05,,0.00,WeatherDisplay:WD co,2013-08-03 18:04:00,
2013-08-03 21:14:00,87.6,64.3,27.90,NNE,17,3.0,10.0,46,0.00,21:15,,0.00,WeatherDisplay:WD co,2013-08-03 18:14:00,
2013-08-03 21:20:00,87.6,64.3,27.89,NE,56,1.0,12.0,46,0.00,21:20,,0.00,WeatherDisplay:WD co,2013-08-03 18:20:00,
2013-08-03 21:25:00,87.4,64.1,27.89,East,93,0.0,7.0,46,0.00,21:25,,0.00,WeatherDisplay:WD co,2013-08-03 18:25:00,
2013-08-03 21:30:00,87.4,64.1,27.89,NNE,32,1.0,9.0,46,0.00,21:30,,0.00,WeatherDisplay:WD co,2013-08-03 18:30:00,
2013-08-03 21:40:00,87.1,64.4,27.91,ENE,64,0.0,6.0,47,0.00,21:40,,0.00,WeatherDisplay:WD co,2013-08-03 18:40:00,
2013-08-03 21:45:00,87.1,64.4,27.91,NE,35,1.0,8.0,47,0.00,21:45,,0.00,WeatherDisplay:WD co,2013-08-03 18:45:00,
2013-08-03 22:00:00,86.7,64.1,27.90,ENE,57,0.0,0.0,47,0.00,22:00,,0.00,WeatherDisplay:WD co,2013-08-03 19:00:00,
2013-08-03 22:10:00,86.4,64.4,27.91,NW,313,1.0,4.0,48,0.00,22:10,,0.00,WeatherDisplay:WD co,2013-08-03 19:10:00,
2013-08-03 22:20:00,86.2,64.8,27.91,East,100,0.0,4.0,49,0.00,22:20,,0.00,WeatherDisplay:WD co,2013-08-03 19:20:00,
2013-08-03 22:25:00,86.0,64.6,27.91,ENE,72,0.0,4.0,49,0.00,22:25,,0.00,WeatherDisplay:WD co,2013-08-03 19:25:00,
2013-08-03 22:30:00,86.0,64.6,27.91,NNE,26,1.0,4.0,49,0.00,22:30,,0.00,WeatherDisplay:WD co,2013-08-03 19:30:00,
2013-08-03 22:40:00,85.8,64.5,27.92,ENE,68,1.0,5.0,49,0.00,22:40,,0.00,WeatherDisplay:WD co,2013-08-03 19:40:00,
2013-08-03 22:45:00,85.8,64.5,27.92,ENE,68,1.0,5.0,49,0.00,22:40,,0.00,WeatherDisplay:WD co,2013-08-03 19:45:00,
2013-08-03 22:49:00,85.6,64.9,27.91,ENE,69,0.0,4.0,50,0.00,22:50,,0.00,WeatherDisplay:WD co,2013-08-03 19:49:00,
2013-08-03 22:54:00,85.6,64.9,27.91,NE,56,0.0,5.0,50,0.00,22:55,,0.00,WeatherDisplay:WD co,2013-08-03 19:54:00,
2013-08-03 23:04:00,85.5,64.7,27.91,NNE,19,0.0,7.0,50,0.00,23:05,,0.00,WeatherDisplay:WD co,2013-08-03 20:04:00,
2013-08-03 23:10:00,85.3,64.5,27.91,North,7,0.0,4.0,50,0.00,23:10,,0.00,WeatherDisplay:WD co,2013-08-03 20:10:00,
2013-08-03 23:15:00,85.3,64.5,27.91,North,7,0.0,4.0,50,0.00,23:10,,0.00,WeatherDisplay:WD co,2013-08-03 20:15:00,
2013-08-03 23:25:00,84.9,64.8,27.91,ESE,116,0.0,4.0,51,0.00,23:20,,0.00,WeatherDisplay:WD co,2013-08-03 20:25:00,
2013-08-03 23:35:00,84.6,64.4,27.91,NE,42,0.0,2.0,51,0.00,23:30,,0.00,WeatherDisplay:WD co,2013-08-03 20:35:00,
2013-08-03 23:40:00,84.6,64.4,27.92,NE,53,0.0,0.0,51,0.00,23:40,,0.00,WeatherDisplay:WD co,2013-08-03 20:40:00,
2013-08-03 23:50:00,84.4,64.3,27.91,NE,37,0.0,2.0,51,0.00,23:45,,0.00,WeatherDisplay:WD co,2013-08-03 20:50:00,
2013-08-03 23:54:00,84.2,64.7,27.91,ENE,71,0.0,0.0,52,0.00,23:55,,0.00,WeatherDisplay:WD co,2013-08-03 20:54:00,